Time;durP1;ratioP1;P1;durP2;ratioP2;P2;SDS_P1;SDS_P2;PMS_P1;PMS_P2;Temp;Humidity;BMP_temperature;BMP_pressure;BME280_temperature;BME280_humidity;BME280_pressure;Samples;Min_cycle;Max_cycle;Signal;HPM_P1;HPM_P2
2023/07/17 00:06:03;;;;;;;15.3;13.1;;;;;;;21.76;81.43;;;;;
2023/07/17 00:16:02;;;;;;;15.3;13.1;;;;;;;21.65;81.92;;;;;
2023/07/17 00:27:03;;;;;;;16.2;13.3;;;;;;;21.52;82.86;;;;;
2023/07/17 00:37:02;;;;;;;16.2;13.3;;;;;;;21.57;83.48;;;;;
2023/07/17 00:48:02;;;;;;;16.2;13.3;;;;;;;21.65;84.66;;;;;
2023/07/17 00:58:02;;;;;;;17;15.1;;;;;;;21.65;83.86;;;;;
2023/07/17 01:08:02;;;;;;;17;15.1;;;;;;;21.48;83.96;;;;;
2023/07/17 01:19:02;;;;;;;17;15.1;;;;;;;21.32;84.01;;;;;
2023/07/17 01:29:02;;;;;;;16.9;14.5;;;;;;;21.18;84.2;;;;;
2023/07/17 01:39:03;;;;;;;16.9;14.5;;;;;;;20.93;86.45;;;;;
2023/07/17 01:50:02;;;;;;;16.9;14.5;;;;;;;20.9;85.58;;;;;
2023/07/17 02:00:03;;;;;;;16.8;15;;;;;;;20.81;86.13;;;;;
2023/07/17 02:11:03;;;;;;;16.8;15;;;;;;;20.71;86.62;;;;;
2023/07/17 02:22:02;;;;;;;17.1;15.3;;;;;;;20.65;85.78;;;;;
2023/07/17 02:33:03;;;;;;;17.1;15.3;;;;;;;20.56;86.99;;;;;
2023/07/17 02:43:05;;;;;;;17.1;15.3;;;;;;;20.64;87.21;;;;;
2023/07/17 02:54:02;;;;;;;17.2;14.7;;;;;;;20.68;86.92;;;;;
2023/07/17 03:05:04;;;;;;;17.2;14.7;;;;;;;20.78;86.74;;;;;
2023/07/17 03:16:02;;;;;;;17.2;14.7;;;;;;;20.72;86.87;;;;;
2023/07/17 03:27:03;;;;;;;18.5;15.2;;;;;;;20.71;86.73;;;;;
2023/07/17 03:38:03;;;;;;;18.5;15.2;;;;;;;20.66;86.85;;;;;
2023/07/17 03:48:02;;;;;;;18.5;15.2;;;;;;;20.81;86.72;;;;;
2023/07/17 03:58:03;;;;;;;18.3;15.8;;;;;;;20.99;86.83;;;;;
2023/07/17 04:08:02;;;;;;;18.3;15.8;;;;;;;21.34;85.88;;;;;
2023/07/17 04:18:02;;;;;;;18.3;15.8;;;;;;;21.61;84.99;;;;;
2023/07/17 04:29:02;;;;;;;18.4;15.1;;;;;;;21.82;84.7;;;;;
2023/07/17 04:40:05;;;;;;;18.4;15.1;;;;;;;22.27;84.45;;;;;
2023/07/17 04:50:02;;;;;;;18.4;15.1;;;;;;;22.66;83.82;;;;;
2023/07/17 05:00:05;;;;;;;17;15.3;;;;;;;23.32;81.72;;;;;
2023/07/17 05:11:04;;;;;;;17;15.3;;;;;;;23.49;81.17;;;;;
2023/07/17 05:21:03;;;;;;;17;15.3;;;;;;;23.9;80.24;;;;;
2023/07/17 05:32:03;;;;;;;17.3;14.4;;;;;;;23.69;79.27;;;;;
2023/07/17 05:42:03;;;;;;;17.3;14.4;;;;;;;23.7;79.17;;;;;
2023/07/17 05:52:03;;;;;;;17.8;15;;;;;;;23.66;79.43;;;;;
2023/07/17 06:03:02;;;;;;;17.8;15;;;;;;;22.77;82.88;;;;;
2023/07/17 06:14:02;;;;;;;17.8;15;;;;;;;23.18;80.14;;;;;
2023/07/17 06:25:03;;;;;;;15.1;12;;;;;;;23.42;74.8;;;;;
2023/07/17 06:36:03;;;;;;;;;;;;;;;;;;;;;
2023/07/17 06:47:02;;;;;;;;;;;;;;;;;;;;;
2023/07/17 06:58:02;;;;;;;;;;;;;;;;;;;;;
2023/07/17 07:08:03;;;;;;;;;;;;;;;;;;;;;
2023/07/17 07:19:02;;;;;;;;;;;;;;;;;;;;;
2023/07/17 07:29:03;;;;;;;;;;;;;;;;;;;;;
2023/07/17 07:39:05;;;;;;;;;;;;;;;;;;;;;
2023/07/17 07:50:03;;;;;;;;;;;;;;;;;;;;;
2023/07/17 08:00:03;;;;;;;;;;;;;;;;;;;;;
2023/07/17 08:11:02;;;;;;;;;;;;;;;;;;;;;
2023/07/17 08:21:02;;;;;;;;;;;;;;;;;;;;;
2023/07/17 08:32:03;;;;;;;;;;;;;;;;;;;;;
2023/07/17 08:42:03;;;;;;;;;;;;;;;;;;;;;
2023/07/17 08:53:02;;;;;;;2.8;1.4;;;;;;;23.75;70.46;;;;;
2023/07/17 09:03:02;;;;;;;2.8;1.4;;;;;;;24.2;69.6;;;;;
2023/07/17 09:14:03;;;;;;;2.8;1.4;;;;;;;24.38;69;;;;;
2023/07/17 09:25:02;;;;;;;3.6;1.5;;;;;;;24.81;68.26;;;;;
2023/07/17 09:36:03;;;;;;;3.6;1.5;;;;;;;25.06;66.55;;;;;
2023/07/17 09:46:03;;;;;;;3.6;1.5;;;;;;;25.44;66.9;;;;;
2023/07/17 09:57:02;;;;;;;4.6;1.8;;;;;;;26.38;63.34;;;;;
2023/07/17 10:08:03;;;;;;;4.6;1.8;;;;;;;27.1;63.57;;;;;
2023/07/17 10:19:02;;;;;;;4.6;1.8;;;;;;;27.26;59.56;;;;;
2023/07/17 10:29:03;;;;;;;4.9;2.1;;;;;;;27.23;59.65;;;;;
2023/07/17 10:39:02;;;;;;;4.9;2.1;;;;;;;27.61;60.05;;;;;
2023/07/17 10:49:02;;;;;;;4.9;2.1;;;;;;;27.25;60.5;;;;;
2023/07/17 10:59:04;;;;;;;4.3;1.7;;;;;;;26.99;61.95;;;;;
2023/07/17 11:09:03;;;;;;;4.3;1.7;;;;;;;26.49;62.6;;;;;
2023/07/17 11:20:03;;;;;;;4.3;1.7;;;;;;;26.01;65.2;;;;;
2023/07/17 11:30:04;;;;;;;6.1;2.2;;;;;;;25.71;66.06;;;;;
2023/07/17 11:41:03;;;;;;;6.1;2.2;;;;;;;25;68.29;;;;;
2023/07/17 11:51:03;;;;;;;6.1;2.2;;;;;;;23.31;74.36;;;;;
2023/07/17 12:02:03;;;;;;;5.2;2.8;;;;;;;22.77;76.27;;;;;
2023/07/17 12:13:03;;;;;;;5.2;2.8;;;;;;;22.28;77.97;;;;;
2023/07/17 12:23:03;;;;;;;5.9;2.9;;;;;;;21.84;81.61;;;;;
2023/07/17 12:34:03;;;;;;;5.9;2.9;;;;;;;21.2;84.18;;;;;
2023/07/17 12:44:03;;;;;;;5.9;2.9;;;;;;;20.94;85.05;;;;;
2023/07/17 12:55:03;;;;;;;10.4;4.9;;;;;;;20.84;85.08;;;;;
2023/07/17 13:05:03;;;;;;;10.4;4.9;;;;;;;20.18;87.48;;;;;
2023/07/17 13:15:03;;;;;;;10.4;4.9;;;;;;;20.11;88.44;;;;;
2023/07/17 13:26:03;;;;;;;7;4.3;;;;;;;19.9;89.31;;;;;
2023/07/17 13:36:03;;;;;;;7;4.3;;;;;;;19.91;89.31;;;;;
2023/07/17 13:46:03;;;;;;;7;4.3;;;;;;;19.89;90.06;;;;;
2023/07/17 13:57:03;;;;;;;5.9;3.8;;;;;;;19.84;90.58;;;;;
2023/07/17 14:07:03;;;;;;;5.9;3.8;;;;;;;19.86;90.28;;;;;
2023/07/17 14:18:04;;;;;;;5.9;3.8;;;;;;;20.11;89.99;;;;;
2023/07/17 14:29:03;;;;;;;6.5;3.8;;;;;;;20.75;88.73;;;;;
2023/07/17 14:39:03;;;;;;;6.5;3.8;;;;;;;21.87;86.59;;;;;
2023/07/17 14:50:03;;;;;;;6.5;3.8;;;;;;;23.38;83.74;;;;;
2023/07/17 15:00:03;;;;;;;4.9;2.6;;;;;;;24.6;76.89;;;;;
2023/07/17 15:11:03;;;;;;;4.9;2.6;;;;;;;25.27;75.26;;;;;
2023/07/17 15:22:03;;;;;;;4.9;2.6;;;;;;;28.99;62.86;;;;;
2023/07/17 15:33:03;;;;;;;3.9;2.2;;;;;;;30.9;55.43;;;;;
2023/07/17 15:44:03;;;;;;;3.9;2.2;;;;;;;31.75;50.3;;;;;
2023/07/17 15:54:03;;;;;;;5.6;1.8;;;;;;;31.95;50.89;;;;;
2023/07/17 16:04:03;;;;;;;5.6;1.8;;;;;;;30.56;52.52;;;;;
2023/07/17 16:15:03;;;;;;;5.6;1.8;;;;;;;28.33;57.89;;;;;
2023/07/17 16:26:05;;;;;;;3.6;1.8;;;;;;;25.68;67.04;;;;;
2023/07/17 16:36:03;;;;;;;3.6;1.8;;;;;;;27;65.19;;;;;
2023/07/17 16:46:03;;;;;;;3.6;1.8;;;;;;;28.97;58.07;;;;;
2023/07/17 16:57:03;;;;;;;3.5;1.5;;;;;;;31.36;52.82;;;;;
2023/07/17 17:07:03;;;;;;;3.5;1.5;;;;;;;32.41;47.84;;;;;
2023/07/17 17:17:03;;;;;;;3.5;1.5;;;;;;;30.85;49.95;;;;;
2023/07/17 17:28:03;;;;;;;2.4;1;;;;;;;28.14;57.48;;;;;
2023/07/17 17:39:03;;;;;;;2.4;1;;;;;;;26.67;62.45;;;;;
2023/07/17 17:49:03;;;;;;;2.4;1;;;;;;;25.44;65.35;;;;;
2023/07/17 17:59:03;;;;;;;3.4;1.6;;;;;;;24.21;69.75;;;;;
2023/07/17 18:09:03;;;;;;;3.4;1.6;;;;;;;23.43;72.27;;;;;
2023/07/17 18:19:03;;;;;;;3.4;1.6;;;;;;;22.77;73.56;;;;;
2023/07/17 18:30:03;;;;;;;5.9;2;;;;;;;22.23;75.12;;;;;
2023/07/17 18:41:03;;;;;;;5.9;2;;;;;;;21.59;76.9;;;;;
2023/07/17 18:51:03;;;;;;;5.9;2;;;;;;;21.1;80.11;;;;;
2023/07/17 19:01:03;;;;;;;6.5;2.6;;;;;;;20.81;80.02;;;;;
2023/07/17 19:12:03;;;;;;;6.5;2.6;;;;;;;20.43;81.45;;;;;
2023/07/17 19:22:03;;;;;;;6.5;2.6;;;;;;;20.09;83.51;;;;;
2023/07/17 19:32:03;;;;;;;5.5;3.1;;;;;;;19.76;84.26;;;;;
2023/07/17 19:43:04;;;;;;;5.5;3.1;;;;;;;19.72;87.4;;;;;
2023/07/17 19:53:03;;;;;;;5.5;3.1;;;;;;;19.76;86.12;;;;;
2023/07/17 20:04:03;;;;;;;6.6;3;;;;;;;19.69;85.4;;;;;
2023/07/17 20:15:03;;;;;;;6.6;3;;;;;;;19.47;85.63;;;;;
2023/07/17 20:26:04;;;;;;;5.1;2.8;;;;;;;19.31;85.77;;;;;
2023/07/17 20:36:03;;;;;;;5.1;2.8;;;;;;;19.07;85.84;;;;;
2023/07/17 20:46:03;;;;;;;5.1;2.8;;;;;;;18.92;85.48;;;;;
2023/07/17 20:56:03;;;;;;;6.9;3.4;;;;;;;18.8;85.95;;;;;
2023/07/17 21:07:04;;;;;;;6.9;3.4;;;;;;;18.58;86.34;;;;;
2023/07/17 21:17:03;;;;;;;6.9;3.4;;;;;;;18.6;88.33;;;;;
2023/07/17 21:27:03;;;;;;;5.9;3.4;;;;;;;18.69;88.59;;;;;
2023/07/17 21:38:03;;;;;;;5.9;3.4;;;;;;;18.71;87.63;;;;;
2023/07/17 21:49:03;;;;;;;5.9;3.4;;;;;;;18.65;88.86;;;;;
2023/07/17 21:59:03;;;;;;;6;3.6;;;;;;;18.68;88.19;;;;;
2023/07/17 22:10:03;;;;;;;6;3.6;;;;;;;18.62;87.81;;;;;
2023/07/17 22:20:03;;;;;;;6;3.6;;;;;;;18.52;87.48;;;;;
2023/07/17 22:30:04;;;;;;;7.1;4.3;;;;;;;18.43;88.43;;;;;
2023/07/17 22:41:03;;;;;;;7.1;4.3;;;;;;;18.42;87.74;;;;;
2023/07/17 22:52:03;;;;;;;7.1;4.3;;;;;;;18.37;88.59;;;;;
2023/07/17 23:02:05;;;;;;;6.5;3.7;;;;;;;18.36;87.8;;;;;
2023/07/17 23:12:03;;;;;;;6.5;3.7;;;;;;;18.18;87.34;;;;;
2023/07/17 23:22:03;;;;;;;6.5;3.7;;;;;;;18.07;87.17;;;;;
2023/07/17 23:33:03;;;;;;;5.5;3.1;;;;;;;17.96;87.83;;;;;
2023/07/17 23:44:04;;;;;;;5.5;3.1;;;;;;;17.96;88.69;;;;;
2023/07/17 23:55:03;;;;;;;5.7;3.6;;;;;;;18.04;90.02;;;;;
